createdAt,value
2018-05-10T00:00:08.651Z,58.40
2018-05-10T00:02:36.104Z,58.50
2018-05-10T00:05:03.567Z,57.40
2018-05-10T00:07:31.039Z,57.90
2018-05-10T00:09:59.262Z,58.30
2018-05-10T00:12:26.727Z,58.30
2018-05-10T00:14:54.182Z,58.20
2018-05-10T00:17:21.742Z,57.90
2018-05-10T00:19:49.207Z,58.10
2018-05-10T00:22:16.665Z,57.80
2018-05-10T00:24:44.136Z,57.10
2018-05-10T00:27:11.604Z,57.00
2018-05-10T00:29:39.835Z,56.60
2018-05-10T00:32:07.305Z,56.60
2018-05-10T00:34:34.767Z,56.20
2018-05-10T00:37:02.235Z,55.80
2018-05-10T00:39:29.880Z,55.90
2018-05-10T00:41:57.337Z,55.90
2018-05-10T00:44:24.807Z,56.40
2018-05-10T00:46:52.315Z,56.10
2018-05-10T00:49:20.553Z,55.80
2018-05-10T00:51:48.028Z,55.80
2018-05-10T00:54:27.415Z,55.40
2018-05-10T00:56:54.906Z,56.30
2018-05-10T00:59:22.374Z,56.80
2018-05-10T01:01:49.843Z,56.80
2018-05-10T01:04:17.302Z,57.30
2018-05-10T01:06:44.779Z,56.80
2018-05-10T01:09:12.999Z,58.00
2018-05-10T01:11:40.475Z,57.90
2018-05-10T01:14:07.939Z,58.10
2018-05-10T01:16:35.410Z,57.70
2018-05-10T01:19:02.875Z,57.90
2018-05-10T01:21:31.110Z,57.50
2018-05-10T01:23:58.575Z,57.30
2018-05-10T01:26:26.042Z,58.00
2018-05-10T01:28:53.510Z,58.20
2018-05-10T01:31:20.973Z,57.60
2018-05-10T01:34:03.282Z,57.50
2018-05-10T01:36:30.768Z,57.80
2018-05-10T01:38:59.094Z,58.50
2018-05-10T01:41:26.567Z,58.40
2018-05-10T01:43:54.030Z,58.70
2018-05-10T01:46:21.498Z,57.90
2018-05-10T01:48:48.967Z,58.40
2018-05-10T01:51:17.199Z,59.80
2018-05-10T01:53:44.666Z,59.80
2018-05-10T01:56:12.409Z,60.10
2018-05-10T01:58:39.875Z,60.30
2018-05-10T02:01:07.338Z,60.70
2018-05-10T02:03:34.815Z,60.60
2018-05-10T02:06:02.279Z,60.50
2018-05-10T02:08:29.759Z,60.60
2018-05-10T02:10:57.234Z,60.60
2018-05-10T02:13:24.715Z,60.70
2018-05-10T02:15:52.187Z,60.60
2018-05-10T02:18:19.673Z,60.30
2018-05-10T02:20:47.154Z,60.60
2018-05-10T02:23:15.393Z,60.10
2018-05-10T02:25:42.840Z,60.00
2018-05-10T02:28:10.319Z,59.70
2018-05-10T02:30:37.843Z,59.40
2018-05-10T02:33:05.314Z,59.30
2018-05-10T02:35:32.773Z,59.30
2018-05-10T02:38:00.263Z,59.30
2018-05-10T02:40:27.742Z,59.20
2018-05-10T02:42:55.981Z,59.30
2018-05-10T02:45:23.441Z,59.30
2018-05-10T02:47:50.919Z,59.30
2018-05-10T02:50:18.387Z,58.80
2018-05-10T02:52:45.846Z,59.20
2018-05-10T02:55:14.078Z,59.60
2018-05-10T02:57:41.555Z,59.60
2018-05-10T03:00:09.043Z,59.80
2018-05-10T03:02:37.283Z,60.20
2018-05-10T03:05:04.746Z,60.20
2018-05-10T03:07:32.214Z,60.50
2018-05-10T03:09:59.759Z,60.40
2018-05-10T03:12:27.235Z,60.80
2018-05-10T03:14:54.698Z,60.60
2018-05-10T03:17:22.170Z,60.20
2018-05-10T03:19:50.410Z,61.00
2018-05-10T03:22:17.915Z,61.00
2018-05-10T03:24:46.147Z,62.10
2018-05-10T03:27:13.622Z,62.10
2018-05-10T03:29:41.852Z,62.40
2018-05-10T03:32:09.333Z,62.40
2018-05-10T03:34:36.798Z,62.60
2018-05-10T03:37:04.304Z,63.10
2018-05-10T03:39:31.773Z,63.10
2018-05-10T03:41:59.239Z,63.00
2018-05-10T03:44:26.779Z,62.30
2018-05-10T03:46:55.011Z,62.30
2018-05-10T03:49:22.480Z,62.30
2018-05-10T03:51:49.933Z,62.90
2018-05-10T03:54:17.404Z,62.90
2018-05-10T03:56:44.861Z,62.90
2018-05-10T03:59:12.333Z,62.90
2018-05-10T04:01:40.570Z,62.90
2018-05-10T04:07:21.126Z,63.00
2018-05-10T04:10:01.094Z,62.60
2018-05-10T04:12:29.299Z,62.60
2018-05-10T04:14:56.761Z,62.50
2018-05-10T04:17:24.296Z,62.90
2018-05-10T04:19:51.764Z,63.10
2018-05-10T04:22:19.220Z,62.90
2018-05-10T04:24:46.667Z,62.70
2018-05-10T04:27:14.131Z,62.50
2018-05-10T04:29:41.692Z,63.30
2018-05-10T04:32:09.152Z,62.70
2018-05-10T04:34:36.604Z,62.60
2018-05-10T04:37:04.832Z,62.60
2018-05-10T04:39:32.285Z,62.60
2018-05-10T04:41:59.744Z,62.50
2018-05-10T04:44:27.192Z,62.50
2018-05-10T04:46:55.416Z,62.10
2018-05-10T04:49:22.873Z,62.00
2018-05-10T04:51:50.340Z,61.90
2018-05-10T04:54:17.792Z,62.00
2018-05-10T04:56:46.007Z,62.00
2018-05-10T04:59:13.461Z,62.00
2018-05-10T05:01:40.911Z,62.00
2018-05-10T05:04:09.126Z,62.20
2018-05-10T05:06:36.567Z,62.10
2018-05-10T05:09:04.814Z,61.80
2018-05-10T05:11:32.240Z,61.80
2018-05-10T05:13:59.708Z,62.10
2018-05-10T05:16:27.174Z,62.20
2018-05-10T05:18:54.633Z,62.30
2018-05-10T05:21:22.851Z,62.90
2018-05-10T05:23:50.315Z,62.90
2018-05-10T05:26:17.766Z,60.90
2018-05-10T05:28:45.982Z,63.00
2018-05-10T05:31:13.427Z,62.90
2018-05-10T05:33:40.898Z,64.40
2018-05-10T05:36:08.340Z,64.10
2018-05-10T05:38:36.567Z,62.60
2018-05-10T05:41:04.098Z,62.60
2018-05-10T05:43:31.553Z,62.20
2018-05-10T05:45:58.926Z,63.00
2018-05-10T05:48:27.160Z,63.90
2018-05-10T05:50:54.616Z,63.80
2018-05-10T05:53:22.141Z,63.50
2018-05-10T05:55:49.521Z,63.50
2018-05-10T05:58:17.749Z,63.30
2018-05-10T06:00:45.193Z,62.70
2018-05-10T06:03:12.663Z,62.10
2018-05-10T06:05:40.116Z,61.70
2018-05-10T06:08:08.352Z,61.90
2018-05-10T06:10:35.799Z,61.90
2018-05-10T06:13:03.248Z,62.40
2018-05-10T06:15:31.566Z,62.10
2018-05-10T06:17:58.931Z,62.00
2018-05-10T06:20:26.392Z,62.40
2018-05-10T06:22:53.842Z,63.10
2018-05-10T06:25:22.152Z,63.60
2018-05-10T06:27:49.613Z,63.50
2018-05-10T06:30:17.072Z,63.40
2018-05-10T06:32:45.388Z,64.00
2018-05-10T06:35:12.906Z,64.00
2018-05-10T06:37:40.332Z,64.40
2018-05-10T06:40:07.797Z,63.20
2018-05-10T06:42:35.235Z,63.00
2018-05-10T06:45:02.700Z,63.00
2018-05-10T06:47:30.916Z,63.10
2018-05-10T06:49:58.384Z,63.00
2018-05-10T06:52:25.853Z,62.60
2018-05-10T06:54:53.308Z,62.10
2018-05-10T06:57:20.755Z,61.90
2018-05-10T06:59:49.028Z,62.00
2018-05-10T07:02:16.608Z,62.00
2018-05-10T07:04:44.007Z,61.70
2018-05-10T07:07:11.447Z,62.20
2018-05-10T07:09:39.820Z,62.60
2018-05-10T07:12:07.118Z,62.50
2018-05-10T07:14:35.339Z,63.70
2018-05-10T07:17:02.786Z,63.70
2018-05-10T07:19:30.252Z,64.10
2018-05-10T07:21:57.726Z,64.60
2018-05-10T07:24:25.218Z,64.80
2018-05-10T07:26:52.660Z,64.90
2018-05-10T07:29:20.124Z,65.70
2018-05-10T07:31:47.568Z,65.60
2018-05-10T07:34:15.800Z,66.60
2018-05-10T07:36:43.248Z,66.20
2018-05-10T07:39:10.708Z,66.20
2018-05-10T07:41:38.924Z,65.70
2018-05-10T07:44:06.379Z,65.70
2018-05-10T07:46:33.839Z,65.30
2018-05-10T07:49:02.068Z,65.10
2018-05-10T07:51:29.520Z,65.10
2018-05-10T07:53:56.974Z,65.10
2018-05-10T07:56:24.424Z,64.90
2018-05-10T07:58:52.656Z,64.00
2018-05-10T08:01:20.113Z,64.00
2018-05-10T08:03:47.548Z,63.40
2018-05-10T08:06:15.776Z,62.90
2018-05-10T08:08:43.231Z,62.90
2018-05-10T08:11:10.682Z,63.40
2018-05-10T08:13:38.254Z,62.80
2018-05-10T08:16:06.465Z,62.60
2018-05-10T08:18:33.928Z,62.60
2018-05-10T08:21:01.392Z,62.30
2018-05-10T08:23:40.768Z,63.00
2018-05-10T08:26:08.211Z,63.00
2018-05-10T08:28:35.673Z,63.60
2018-05-10T08:31:03.127Z,63.70
2018-05-10T08:33:31.350Z,65.00
2018-05-10T08:35:58.814Z,64.90
2018-05-10T08:38:26.312Z,65.50
2018-05-10T08:40:53.759Z,66.00
2018-05-10T08:43:21.215Z,64.90
2018-05-10T08:45:48.669Z,65.00
2018-05-10T08:48:16.143Z,64.80
2018-05-10T08:50:43.621Z,65.00
2018-05-10T08:53:11.084Z,65.20
2018-05-10T08:55:38.531Z,65.00
2018-05-10T08:58:06.760Z,64.40
2018-05-10T09:00:34.213Z,64.40
2018-05-10T09:03:01.673Z,64.50
2018-05-10T09:05:29.116Z,63.90
2018-05-10T09:07:57.449Z,65.70
2018-05-10T09:10:24.916Z,65.60
2018-05-10T09:12:59.395Z,65.80
2018-05-10T09:15:26.856Z,67.50
2018-05-10T09:17:54.308Z,68.10
2018-05-10T09:20:21.819Z,67.90
2018-05-10T09:22:49.219Z,67.60
2018-05-10T09:25:16.681Z,67.80
2018-05-10T09:27:44.136Z,69.00
2018-05-10T09:30:11.597Z,68.50
2018-05-10T09:32:39.813Z,68.60
2018-05-10T09:35:07.271Z,68.50
2018-05-10T09:37:34.728Z,68.40
2018-05-10T09:40:02.188Z,69.30
2018-05-10T09:42:30.405Z,69.50
2018-05-10T09:44:57.966Z,69.50
2018-05-10T09:47:25.369Z,69.40
2018-05-10T09:49:52.825Z,68.30
2018-05-10T09:52:20.275Z,68.90
2018-05-10T09:54:47.741Z,69.30
2018-05-10T09:57:15.192Z,68.80
2018-05-10T09:59:42.656Z,69.80
2018-05-10T10:02:10.873Z,69.30
2018-05-10T10:04:38.332Z,69.40
2018-05-10T10:07:05.784Z,69.30
2018-05-10T10:09:34.012Z,71.80
2018-05-10T10:12:01.533Z,71.80
2018-05-10T10:14:29.759Z,72.50
2018-05-10T10:16:57.228Z,72.50
2018-05-10T10:19:24.692Z,72.50
2018-05-10T10:21:52.140Z,74.00
2018-05-10T10:24:19.604Z,74.10
2018-05-10T10:26:47.825Z,74.50
2018-05-10T10:29:15.293Z,74.40
2018-05-10T10:31:42.741Z,73.30
2018-05-10T10:34:10.232Z,72.20
2018-05-10T10:36:37.735Z,73.10
2018-05-10T10:39:05.192Z,74.70
2018-05-10T10:41:32.647Z,73.10
2018-05-10T10:44:00.104Z,72.40
2018-05-10T10:46:28.321Z,70.70
2018-05-10T10:48:55.779Z,70.70
2018-05-10T10:51:23.237Z,72.30
2018-05-10T10:53:50.778Z,71.50
2018-05-10T10:56:18.156Z,70.80
2018-05-10T10:58:45.652Z,72.70
2018-05-10T11:01:13.104Z,71.80
2018-05-10T11:03:40.571Z,72.10
2018-05-10T11:06:08.028Z,72.70
2018-05-10T11:08:35.492Z,72.90
2018-05-10T11:11:02.940Z,72.90
2018-05-10T11:13:31.164Z,76.30
2018-05-10T11:15:58.735Z,76.20
2018-05-10T11:18:26.208Z,75.40
2018-05-10T11:20:53.684Z,75.50
2018-05-10T11:23:21.120Z,74.80
2018-05-10T11:25:48.588Z,74.90
2018-05-10T11:28:16.036Z,73.80
2018-05-10T11:30:44.276Z,74.60
2018-05-10T11:33:11.746Z,74.50
2018-05-10T11:35:39.184Z,75.50
2018-05-10T11:38:06.632Z,73.70
2018-05-10T11:40:34.872Z,72.90
2018-05-10T11:43:02.333Z,72.90
2018-05-10T11:45:29.792Z,71.70
2018-05-10T11:47:57.249Z,71.30
2018-05-10T11:50:24.711Z,70.70
2018-05-10T11:52:52.931Z,70.00
2018-05-10T11:55:20.388Z,70.00
2018-05-10T11:57:47.845Z,70.60
2018-05-10T12:00:15.308Z,73.30
2018-05-10T12:02:42.756Z,73.60
2018-05-10T12:05:10.991Z,71.00
2018-05-10T12:07:38.448Z,71.00
2018-05-10T12:10:07.013Z,70.80
2018-05-10T12:12:35.232Z,72.60
2018-05-10T12:15:02.692Z,72.60
2018-05-10T12:17:30.160Z,72.40
2018-05-10T12:19:57.609Z,73.50
2018-05-10T12:22:25.824Z,73.10
2018-05-10T12:24:53.280Z,73.00
2018-05-10T12:27:20.736Z,73.00
2018-05-10T12:29:48.964Z,75.90
2018-05-10T12:32:16.415Z,75.90
2018-05-10T12:37:18.633Z,74.30
2018-05-10T12:39:46.088Z,74.30
2018-05-10T12:42:13.540Z,74.80
2018-05-10T12:44:41.765Z,76.90
2018-05-10T12:47:09.216Z,76.90
2018-05-10T12:49:36.684Z,76.80
2018-05-10T12:52:04.152Z,73.80
2018-05-10T12:54:31.609Z,77.20
2018-05-10T12:56:59.064Z,77.30
2018-05-10T12:59:27.283Z,76.90
2018-05-10T13:01:54.740Z,76.80
2018-05-10T13:04:22.200Z,76.80
2018-05-10T13:06:49.721Z,76.80
2018-05-10T13:09:17.884Z,77.30
2018-05-10T13:11:45.337Z,77.10
2018-05-10T13:14:12.803Z,76.90
2018-05-10T13:16:40.259Z,76.60
2018-05-10T13:19:08.500Z,75.70
2018-05-10T13:21:36.024Z,75.70
2018-05-10T13:24:03.411Z,75.30
2018-05-10T13:26:30.914Z,73.70
2018-05-10T13:28:58.439Z,73.60
2018-05-10T13:31:25.897Z,75.00
2018-05-10T13:33:53.344Z,74.60
2018-05-10T13:36:21.568Z,74.20
2018-05-10T13:38:49.033Z,74.20
2018-05-10T13:41:16.483Z,72.80
2018-05-10T13:43:44.704Z,70.70
2018-05-10T13:46:12.181Z,70.70
2018-05-10T13:48:39.616Z,69.00
2018-05-10T13:51:07.096Z,67.60
2018-05-10T13:53:34.549Z,68.10
2018-05-10T13:56:02.780Z,68.50
2018-05-10T13:58:30.239Z,68.50
2018-05-10T14:00:57.696Z,71.20
2018-05-10T14:03:25.152Z,71.10
2018-05-10T14:05:52.612Z,69.10
2018-05-10T14:08:20.111Z,70.00
2018-05-10T14:10:47.608Z,68.20
2018-05-10T14:13:15.020Z,67.60
2018-05-10T14:15:42.488Z,67.90
2018-05-10T14:18:10.704Z,68.90
2018-05-10T14:20:38.165Z,68.90
2018-05-10T14:23:05.628Z,66.70
2018-05-10T14:25:33.075Z,65.20
2018-05-10T14:28:01.290Z,65.80
2018-05-10T14:30:28.744Z,65.70
2018-05-10T14:32:56.192Z,64.40
2018-05-10T14:35:24.413Z,67.20
2018-05-10T14:37:51.862Z,67.20
2018-05-10T14:40:20.081Z,65.20
2018-05-10T14:42:47.528Z,65.20
2018-05-10T14:45:15.028Z,65.70
2018-05-10T14:47:42.476Z,67.50
2018-05-10T14:50:09.932Z,66.80
2018-05-10T14:52:37.377Z,67.10
2018-05-10T14:55:05.599Z,66.20
2018-05-10T14:57:33.113Z,66.20
2018-05-10T15:00:00.573Z,66.90
2018-05-10T15:02:28.012Z,66.40
2018-05-10T15:04:55.510Z,65.60
2018-05-10T15:07:22.956Z,65.50
2018-05-10T15:09:50.431Z,67.10
2018-05-10T15:12:17.857Z,66.80
2018-05-10T15:14:46.084Z,67.30
2018-05-10T15:17:13.531Z,67.20
2018-05-10T15:19:40.984Z,67.30
2018-05-10T15:22:09.196Z,66.60
2018-05-10T15:24:36.656Z,66.60
2018-05-10T15:27:04.104Z,67.90
2018-05-10T15:29:32.328Z,66.10
2018-05-10T15:31:59.774Z,66.00
2018-05-10T15:34:27.265Z,66.80
2018-05-10T15:36:54.729Z,66.60
2018-05-10T15:39:22.178Z,68.30
2018-05-10T15:41:49.643Z,68.80
2018-05-10T15:44:17.848Z,69.00
2018-05-10T15:46:45.312Z,69.00
2018-05-10T15:49:12.756Z,70.50
2018-05-10T15:51:41.063Z,68.80
2018-05-10T15:54:08.424Z,68.80
2018-05-10T15:56:35.916Z,70.00
2018-05-10T15:59:03.360Z,69.20
2018-05-10T16:01:30.820Z,69.20
2018-05-10T16:03:59.144Z,71.10
2018-05-10T16:06:26.600Z,71.10
2018-05-10T16:08:54.048Z,71.00
2018-05-10T16:11:22.273Z,71.50
2018-05-10T16:13:49.807Z,71.50
2018-05-10T16:16:17.210Z,73.70
2018-05-10T16:18:44.658Z,73.00
2018-05-10T16:21:12.117Z,72.20
2018-05-10T16:23:39.568Z,72.60
2018-05-10T16:26:07.792Z,73.40
2018-05-10T16:28:35.240Z,73.30
2018-05-10T16:31:03.463Z,73.50
2018-05-10T16:33:31.081Z,73.50
2018-05-10T16:35:58.419Z,73.00
2018-05-10T16:38:26.711Z,72.90
2018-05-10T16:40:55.685Z,72.70
2018-05-10T16:43:23.129Z,72.60
2018-05-10T16:45:50.592Z,74.00
2018-05-10T16:48:18.052Z,73.50
2018-05-10T16:50:46.276Z,74.20
2018-05-10T16:53:13.823Z,74.20
2018-05-10T16:55:41.196Z,74.40
2018-05-10T16:58:08.652Z,75.80
2018-05-10T17:00:36.880Z,75.70
2018-05-10T17:03:04.328Z,75.70
2018-05-10T17:05:31.789Z,76.00
2018-05-10T17:07:59.244Z,75.90
2018-05-10T17:10:27.469Z,76.30
2018-05-10T17:12:54.920Z,76.30
2018-05-10T17:15:22.385Z,76.10
2018-05-10T17:17:49.833Z,76.50
2018-05-10T17:20:18.056Z,75.80
2018-05-10T17:22:45.505Z,75.80
2018-05-10T17:25:12.972Z,75.10
2018-05-10T17:27:40.431Z,76.70
2018-05-10T17:30:08.656Z,76.80
2018-05-10T17:32:36.108Z,76.70
2018-05-10T17:35:03.569Z,76.60
2018-05-10T17:37:31.022Z,76.60
2018-05-10T17:39:59.250Z,76.30
2018-05-10T17:42:26.704Z,76.30
2018-05-10T17:44:54.156Z,76.30
2018-05-10T17:47:21.620Z,76.70
2018-05-10T17:49:49.840Z,77.30
2018-05-10T17:52:17.301Z,77.30
2018-05-10T17:54:44.752Z,77.20
2018-05-10T17:57:12.212Z,77.60
2018-05-10T17:59:40.432Z,78.00
2018-05-10T18:02:07.897Z,77.90
2018-05-10T18:04:35.408Z,77.70
2018-05-10T18:07:02.875Z,77.70
2018-05-10T18:09:30.329Z,76.30
2018-05-10T18:11:57.801Z,75.80
2018-05-10T18:14:25.252Z,75.30
2018-05-10T18:16:52.719Z,75.30
2018-05-10T18:19:20.164Z,74.60
2018-05-10T18:21:47.625Z,74.60
2018-05-10T18:24:15.088Z,73.60
2018-05-10T18:26:43.320Z,73.60
2018-05-10T18:29:12.868Z,73.60
2018-05-10T18:31:40.330Z,73.70
2018-05-10T18:34:07.800Z,73.90
2018-05-10T18:36:35.259Z,75.10
2018-05-10T18:39:02.795Z,75.00
2018-05-10T18:41:30.183Z,75.00
2018-05-10T18:43:57.623Z,75.00
2018-05-10T18:46:25.109Z,74.90
2018-05-10T18:48:52.557Z,74.40
2018-05-10T18:51:20.029Z,75.00
2018-05-10T18:53:47.476Z,75.30
2018-05-10T18:56:14.986Z,76.00
2018-05-10T18:58:42.432Z,76.00
2018-05-10T19:01:09.895Z,75.60
2018-05-10T19:03:37.344Z,75.40
2018-05-10T19:06:04.812Z,76.00
2018-05-10T19:08:32.256Z,76.30
2018-05-10T19:10:59.808Z,76.70
2018-05-10T19:13:27.264Z,76.40
2018-05-10T19:15:54.769Z,76.70
2018-05-10T19:18:22.225Z,76.00
2018-05-10T19:20:49.733Z,75.10
2018-05-10T19:23:17.137Z,75.10
2018-05-10T19:25:44.600Z,75.50
2018-05-10T19:28:12.052Z,75.90
2018-05-10T19:30:40.276Z,76.50
2018-05-10T19:33:07.728Z,76.40
2018-05-10T19:35:35.190Z,76.30
2018-05-10T19:38:02.644Z,76.40
2018-05-10T19:40:30.106Z,76.40
2018-05-10T19:42:58.332Z,75.50
2018-05-10T19:45:25.784Z,75.40
2018-05-10T19:47:53.244Z,75.60
2018-05-10T19:50:20.703Z,76.00
2018-05-10T19:52:49.189Z,76.20
2018-05-10T19:55:17.400Z,76.00
2018-05-10T19:57:44.869Z,75.80
2018-05-10T20:00:12.315Z,75.40
2018-05-10T20:02:40.548Z,75.00
2018-05-10T20:05:07.998Z,75.00
2018-05-10T20:07:35.460Z,74.70
2018-05-10T20:10:02.952Z,74.90
2018-05-10T20:12:30.449Z,74.90
2018-05-10T20:14:57.869Z,74.60
2018-05-10T20:17:25.336Z,74.90
2018-05-10T20:19:53.580Z,75.40
2018-05-10T20:22:21.061Z,75.40
2018-05-10T20:24:48.505Z,76.00
2018-05-10T20:27:16.024Z,75.80
2018-05-10T20:29:43.477Z,76.10
2018-05-10T20:32:11.733Z,76.00
2018-05-10T20:34:39.157Z,76.00
2018-05-10T20:37:06.796Z,76.40
2018-05-10T20:39:34.243Z,76.70
2018-05-10T20:42:01.709Z,76.80
2018-05-10T20:44:29.161Z,76.90
2018-05-10T20:46:56.621Z,76.90
2018-05-10T20:49:24.073Z,76.90
2018-05-10T20:51:51.541Z,76.80
2018-05-10T20:54:19.775Z,76.70
2018-05-10T20:56:47.221Z,76.70
2018-05-10T20:59:14.680Z,76.80
2018-05-10T21:01:42.137Z,76.60
2018-05-10T21:04:09.646Z,76.80
2018-05-10T21:06:37.816Z,76.50
2018-05-10T21:09:05.273Z,76.50
2018-05-10T21:11:32.796Z,76.20
2018-05-10T21:14:00.237Z,75.80
2018-05-10T21:16:27.725Z,76.30
2018-05-10T21:18:55.159Z,76.60
2018-05-10T21:21:22.640Z,76.20
2018-05-10T21:23:50.096Z,76.10
2018-05-10T21:26:17.559Z,76.30
2018-05-10T21:28:45.008Z,76.40
2018-05-10T21:31:12.469Z,76.50
2018-05-10T21:33:40.685Z,76.20
2018-05-10T21:36:08.149Z,76.30
2018-05-10T21:38:35.596Z,76.40
2018-05-10T21:41:03.820Z,76.50
2018-05-10T21:43:31.287Z,76.50
2018-05-10T21:45:58.859Z,76.40
2018-05-10T21:48:26.288Z,76.30
2018-05-10T21:50:54.504Z,77.10
2018-05-10T21:53:22.046Z,77.10
2018-05-10T21:55:49.420Z,77.10
2018-05-10T21:58:16.884Z,77.10
2018-05-10T22:00:45.095Z,76.80
2018-05-10T22:03:12.560Z,76.70
2018-05-10T22:05:40.008Z,76.60
2018-05-10T22:08:08.232Z,76.10
2018-05-10T22:10:35.681Z,76.00
2018-05-10T22:13:03.140Z,76.20
2018-05-10T22:15:30.604Z,76.70
2018-05-10T22:17:58.083Z,76.70
2018-05-10T22:20:25.533Z,76.60
2018-05-10T22:22:53.768Z,76.40
2018-05-10T22:25:21.209Z,76.40
2018-05-10T22:27:49.432Z,77.00
2018-05-10T22:30:16.882Z,77.00
2018-05-10T22:32:44.340Z,77.60
2018-05-10T22:35:11.878Z,77.50
2018-05-10T22:37:40.017Z,76.80
2018-05-10T22:40:07.469Z,76.80
2018-05-10T22:42:34.928Z,77.00
2018-05-10T22:45:02.372Z,76.30
2018-05-10T22:47:30.605Z,76.00
2018-05-10T22:49:58.048Z,75.90
2018-05-10T22:52:25.504Z,75.10
2018-05-10T22:54:52.960Z,75.00
2018-05-10T22:57:21.201Z,75.60
2018-05-10T22:59:48.664Z,75.60
2018-05-10T23:02:16.101Z,76.10
2018-05-10T23:04:44.314Z,75.60
2018-05-10T23:07:11.780Z,75.60
2018-05-10T23:09:39.262Z,76.00
2018-05-10T23:12:06.767Z,76.40
2018-05-10T23:14:34.916Z,78.20
2018-05-10T23:17:02.380Z,77.70
2018-05-10T23:19:29.844Z,78.20
2018-05-10T23:21:57.308Z,78.00
2018-05-10T23:24:24.836Z,77.70
2018-05-10T23:26:52.228Z,77.70
2018-05-10T23:29:19.678Z,78.30
2018-05-10T23:31:47.903Z,78.00
2018-05-10T23:34:15.348Z,78.00
2018-05-10T23:36:43.581Z,77.70
2018-05-10T23:39:11.024Z,77.70
2018-05-10T23:41:38.486Z,77.90
2018-05-10T23:44:05.950Z,78.10
2018-05-10T23:46:33.408Z,78.10
2018-05-10T23:49:01.633Z,78.40
2018-05-10T23:51:29.083Z,78.40
2018-05-10T23:53:56.535Z,78.20
2018-05-10T23:56:24.748Z,77.90
2018-05-10T23:58:52.208Z,77.70
